sensor_id;sensor_type;location;lat;lon;timestamp;P1;durP1;ratioP1;P2;durP2;ratioP2
54265;SDS011;40836;39.770;2.714;2022-11-20T00:00:48;8.30;;;4.38;;
54265;SDS011;40836;39.770;2.714;2022-11-20T00:03:13;6.55;;;4.15;;
54265;SDS011;40836;39.770;2.714;2022-11-20T00:05:39;10.02;;;5.07;;
54265;SDS011;40836;39.770;2.714;2022-11-20T00:08:04;8.27;;;5.05;;
54265;SDS011;40836;39.770;2.714;2022-11-20T00:10:30;9.50;;;6.03;;
54265;SDS011;40836;39.770;2.714;2022-11-20T00:12:57;8.93;;;6.03;;
54265;SDS011;40836;39.770;2.714;2022-11-20T00:15:23;13.35;;;6.72;;
54265;SDS011;40836;39.770;2.714;2022-11-20T00:17:48;8.60;;;5.28;;
54265;SDS011;40836;39.770;2.714;2022-11-20T00:20:14;10.68;;;5.35;;
54265;SDS011;40836;39.770;2.714;2022-11-20T00:22:39;8.40;;;5.32;;
54265;SDS011;40836;39.770;2.714;2022-11-20T00:25:05;10.82;;;7.38;;
54265;SDS011;40836;39.770;2.714;2022-11-20T00:27:31;11.93;;;8.02;;
54265;SDS011;40836;39.770;2.714;2022-11-20T00:29:56;10.20;;;7.53;;
54265;SDS011;40836;39.770;2.714;2022-11-20T00:32:21;12.55;;;8.32;;
54265;SDS011;40836;39.770;2.714;2022-11-20T00:34:47;11.27;;;6.85;;
54265;SDS011;40836;39.770;2.714;2022-11-20T00:37:12;12.63;;;6.38;;
54265;SDS011;40836;39.770;2.714;2022-11-20T00:39:38;7.82;;;5.15;;
54265;SDS011;40836;39.770;2.714;2022-11-20T00:42:04;7.38;;;4.45;;
54265;SDS011;40836;39.770;2.714;2022-11-20T00:44:30;10.50;;;4.97;;
54265;SDS011;40836;39.770;2.714;2022-11-20T00:46:55;7.55;;;4.47;;
54265;SDS011;40836;39.770;2.714;2022-11-20T00:49:21;8.80;;;4.90;;
54265;SDS011;40836;39.770;2.714;2022-11-20T00:51:46;6.38;;;4.25;;
54265;SDS011;40836;39.770;2.714;2022-11-20T00:54:12;12.00;;;3.38;;
54265;SDS011;40836;39.770;2.714;2022-11-20T00:56:37;7.70;;;3.67;;
54265;SDS011;40836;39.770;2.714;2022-11-20T00:59:03;7.28;;;4.03;;
54265;SDS011;40836;39.770;2.714;2022-11-20T01:01:28;6.95;;;3.85;;
54265;SDS011;40836;39.770;2.714;2022-11-20T01:03:55;6.35;;;3.97;;
54265;SDS011;40836;39.770;2.714;2022-11-20T01:06:23;12.90;;;4.50;;
54265;SDS011;40836;39.770;2.714;2022-11-20T01:08:50;7.35;;;3.92;;
54265;SDS011;40836;39.770;2.714;2022-11-20T01:11:20;8.73;;;4.20;;
54265;SDS011;40836;39.770;2.714;2022-11-20T01:13:50;7.20;;;3.88;;
54265;SDS011;40836;39.770;2.714;2022-11-20T01:18:51;6.32;;;3.83;;
54265;SDS011;40836;39.770;2.714;2022-11-20T01:21:19;9.00;;;4.15;;
54265;SDS011;40836;39.770;2.714;2022-11-20T01:23:47;6.72;;;3.50;;
54265;SDS011;40836;39.770;2.714;2022-11-20T01:26:14;11.32;;;3.63;;
54265;SDS011;40836;39.770;2.714;2022-11-20T01:28:42;8.57;;;3.50;;
54265;SDS011;40836;39.770;2.714;2022-11-20T01:33:40;4.55;;;2.42;;
54265;SDS011;40836;39.770;2.714;2022-11-20T01:36:06;6.10;;;2.65;;
54265;SDS011;40836;39.770;2.714;2022-11-20T01:38:33;5.00;;;2.70;;
54265;SDS011;40836;39.770;2.714;2022-11-20T01:40:58;6.15;;;2.83;;
54265;SDS011;40836;39.770;2.714;2022-11-20T01:43:24;4.78;;;2.88;;
54265;SDS011;40836;39.770;2.714;2022-11-20T01:48:22;6.68;;;3.10;;
54265;SDS011;40836;39.770;2.714;2022-11-20T01:50:50;6.30;;;4.57;;
54265;SDS011;40836;39.770;2.714;2022-11-20T01:53:18;8.27;;;4.95;;
54265;SDS011;40836;39.770;2.714;2022-11-20T01:55:49;10.75;;;4.55;;
54265;SDS011;40836;39.770;2.714;2022-11-20T01:58:18;7.50;;;4.28;;
54265;SDS011;40836;39.770;2.714;2022-11-20T02:00:48;8.75;;;5.10;;
54265;SDS011;40836;39.770;2.714;2022-11-20T02:03:15;8.98;;;5.38;;
54265;SDS011;40836;39.770;2.714;2022-11-20T02:08:11;6.88;;;4.75;;
54265;SDS011;40836;39.770;2.714;2022-11-20T02:10:38;9.15;;;5.00;;
54265;SDS011;40836;39.770;2.714;2022-11-20T02:13:04;8.55;;;4.60;;
54265;SDS011;40836;39.770;2.714;2022-11-20T02:15:49;7.28;;;4.78;;
54265;SDS011;40836;39.770;2.714;2022-11-20T02:18:16;7.75;;;5.10;;
54265;SDS011;40836;39.770;2.714;2022-11-20T02:20:44;9.45;;;5.65;;
54265;SDS011;40836;39.770;2.714;2022-11-20T02:23:12;8.15;;;4.55;;
54265;SDS011;40836;39.770;2.714;2022-11-20T02:25:58;7.97;;;4.28;;
54265;SDS011;40836;39.770;2.714;2022-11-20T02:28:27;11.32;;;3.70;;
54265;SDS011;40836;39.770;2.714;2022-11-20T02:30:52;10.48;;;4.30;;
54265;SDS011;40836;39.770;2.714;2022-11-20T02:33:18;7.95;;;3.75;;
54265;SDS011;40836;39.770;2.714;2022-11-20T02:35:44;6.13;;;3.58;;
54265;SDS011;40836;39.770;2.714;2022-11-20T02:38:11;8.88;;;3.10;;
54265;SDS011;40836;39.770;2.714;2022-11-20T02:40:38;5.80;;;3.30;;
54265;SDS011;40836;39.770;2.714;2022-11-20T02:43:03;7.03;;;2.92;;
54265;SDS011;40836;39.770;2.714;2022-11-20T02:45:29;8.15;;;3.13;;
54265;SDS011;40836;39.770;2.714;2022-11-20T02:47:54;9.30;;;3.13;;
54265;SDS011;40836;39.770;2.714;2022-11-20T02:50:19;7.28;;;2.60;;
54265;SDS011;40836;39.770;2.714;2022-11-20T02:52:45;7.32;;;2.67;;
54265;SDS011;40836;39.770;2.714;2022-11-20T02:55:10;6.90;;;2.30;;
54265;SDS011;40836;39.770;2.714;2022-11-20T02:57:36;7.95;;;2.78;;
54265;SDS011;40836;39.770;2.714;2022-11-20T03:00:02;6.57;;;2.28;;
54265;SDS011;40836;39.770;2.714;2022-11-20T03:02:29;5.18;;;2.60;;
54265;SDS011;40836;39.770;2.714;2022-11-20T03:04:55;4.95;;;2.78;;
54265;SDS011;40836;39.770;2.714;2022-11-20T03:07:21;6.40;;;3.00;;
54265;SDS011;40836;39.770;2.714;2022-11-20T03:09:46;5.53;;;2.50;;
54265;SDS011;40836;39.770;2.714;2022-11-20T03:12:12;5.75;;;2.50;;
54265;SDS011;40836;39.770;2.714;2022-11-20T03:14:37;5.90;;;2.70;;
54265;SDS011;40836;39.770;2.714;2022-11-20T03:17:02;5.65;;;2.80;;
54265;SDS011;40836;39.770;2.714;2022-11-20T03:19:28;6.07;;;2.80;;
54265;SDS011;40836;39.770;2.714;2022-11-20T03:21:54;3.80;;;2.42;;
54265;SDS011;40836;39.770;2.714;2022-11-20T03:24:19;4.90;;;2.97;;
54265;SDS011;40836;39.770;2.714;2022-11-20T03:26:45;4.68;;;2.55;;
54265;SDS011;40836;39.770;2.714;2022-11-20T03:29:10;3.90;;;2.50;;
54265;SDS011;40836;39.770;2.714;2022-11-20T03:31:37;5.07;;;2.60;;
54265;SDS011;40836;39.770;2.714;2022-11-20T03:34:08;6.22;;;2.85;;
54265;SDS011;40836;39.770;2.714;2022-11-20T03:36:34;6.32;;;2.72;;
54265;SDS011;40836;39.770;2.714;2022-11-20T03:39:02;5.15;;;2.67;;
54265;SDS011;40836;39.770;2.714;2022-11-20T03:41:28;8.02;;;2.78;;
54265;SDS011;40836;39.770;2.714;2022-11-20T03:43:59;6.03;;;3.10;;
54265;SDS011;40836;39.770;2.714;2022-11-20T03:46:27;6.63;;;2.60;;
54265;SDS011;40836;39.770;2.714;2022-11-20T03:48:53;5.70;;;2.42;;
54265;SDS011;40836;39.770;2.714;2022-11-20T03:51:20;5.78;;;2.60;;
54265;SDS011;40836;39.770;2.714;2022-11-20T03:53:48;3.45;;;2.47;;
54265;SDS011;40836;39.770;2.714;2022-11-20T03:56:15;3.83;;;2.55;;
54265;SDS011;40836;39.770;2.714;2022-11-20T03:58:42;4.40;;;2.40;;
54265;SDS011;40836;39.770;2.714;2022-11-20T04:01:09;5.60;;;2.40;;
54265;SDS011;40836;39.770;2.714;2022-11-20T04:03:42;3.95;;;2.30;;
54265;SDS011;40836;39.770;2.714;2022-11-20T04:06:09;5.53;;;3.00;;
54265;SDS011;40836;39.770;2.714;2022-11-20T04:08:42;4.25;;;2.70;;
54265;SDS011;40836;39.770;2.714;2022-11-20T04:11:09;7.82;;;2.80;;
54265;SDS011;40836;39.770;2.714;2022-11-20T04:13:42;6.38;;;3.13;;
54265;SDS011;40836;39.770;2.714;2022-11-20T04:16:10;6.85;;;3.10;;
54265;SDS011;40836;39.770;2.714;2022-11-20T04:18:36;5.78;;;3.38;;
54265;SDS011;40836;39.770;2.714;2022-11-20T04:21:03;5.78;;;3.28;;
54265;SDS011;40836;39.770;2.714;2022-11-20T04:23:29;6.05;;;3.88;;
54265;SDS011;40836;39.770;2.714;2022-11-20T04:25:59;4.25;;;3.00;;
54265;SDS011;40836;39.770;2.714;2022-11-20T04:28:26;5.97;;;3.42;;
54265;SDS011;40836;39.770;2.714;2022-11-20T04:30:52;5.28;;;3.58;;
54265;SDS011;40836;39.770;2.714;2022-11-20T04:33:17;7.05;;;3.17;;
54265;SDS011;40836;39.770;2.714;2022-11-20T04:35:43;8.00;;;3.42;;
54265;SDS011;40836;39.770;2.714;2022-11-20T04:38:11;7.28;;;3.58;;
54265;SDS011;40836;39.770;2.714;2022-11-20T04:40:37;7.18;;;3.72;;
54265;SDS011;40836;39.770;2.714;2022-11-20T04:43:03;4.75;;;3.05;;
54265;SDS011;40836;39.770;2.714;2022-11-20T04:45:28;7.25;;;3.05;;
54265;SDS011;40836;39.770;2.714;2022-11-20T04:47:53;4.70;;;2.90;;
54265;SDS011;40836;39.770;2.714;2022-11-20T04:50:19;7.43;;;2.75;;
54265;SDS011;40836;39.770;2.714;2022-11-20T04:52:44;7.38;;;2.65;;
54265;SDS011;40836;39.770;2.714;2022-11-20T04:55:10;4.65;;;2.40;;
54265;SDS011;40836;39.770;2.714;2022-11-20T04:57:35;3.63;;;2.47;;
54265;SDS011;40836;39.770;2.714;2022-11-20T05:00:01;8.40;;;2.70;;
54265;SDS011;40836;39.770;2.714;2022-11-20T05:02:26;4.60;;;2.30;;
54265;SDS011;40836;39.770;2.714;2022-11-20T05:04:51;4.57;;;2.40;;
54265;SDS011;40836;39.770;2.714;2022-11-20T05:07:17;5.43;;;2.30;;
54265;SDS011;40836;39.770;2.714;2022-11-20T05:09:42;4.88;;;2.40;;
54265;SDS011;40836;39.770;2.714;2022-11-20T05:12:08;6.00;;;2.40;;
54265;SDS011;40836;39.770;2.714;2022-11-20T05:14:34;6.95;;;2.30;;
54265;SDS011;40836;39.770;2.714;2022-11-20T05:16:59;5.78;;;1.98;;
54265;SDS011;40836;39.770;2.714;2022-11-20T05:19:25;4.25;;;2.28;;
54265;SDS011;40836;39.770;2.714;2022-11-20T05:21:50;5.95;;;2.40;;
54265;SDS011;40836;39.770;2.714;2022-11-20T05:24:16;4.22;;;2.20;;
54265;SDS011;40836;39.770;2.714;2022-11-20T05:26:41;10.65;;;2.67;;
54265;SDS011;40836;39.770;2.714;2022-11-20T05:29:09;4.97;;;2.22;;
54265;SDS011;40836;39.770;2.714;2022-11-20T05:31:36;5.97;;;2.28;;
54265;SDS011;40836;39.770;2.714;2022-11-20T05:34:03;7.50;;;2.35;;
54265;SDS011;40836;39.770;2.714;2022-11-20T05:36:29;7.15;;;2.20;;
54265;SDS011;40836;39.770;2.714;2022-11-20T05:38:55;4.85;;;1.85;;
54265;SDS011;40836;39.770;2.714;2022-11-20T05:41:20;4.53;;;2.00;;
54265;SDS011;40836;39.770;2.714;2022-11-20T05:43:47;5.97;;;2.20;;
54265;SDS011;40836;39.770;2.714;2022-11-20T05:46:14;4.18;;;1.95;;
54265;SDS011;40836;39.770;2.714;2022-11-20T05:48:42;8.05;;;2.40;;
54265;SDS011;40836;39.770;2.714;2022-11-20T05:51:09;6.13;;;2.40;;
54265;SDS011;40836;39.770;2.714;2022-11-20T05:53:36;5.15;;;2.15;;
54265;SDS011;40836;39.770;2.714;2022-11-20T05:56:03;5.55;;;2.00;;
54265;SDS011;40836;39.770;2.714;2022-11-20T05:58:30;5.85;;;2.10;;
54265;SDS011;40836;39.770;2.714;2022-11-20T06:01:07;6.82;;;2.25;;
54265;SDS011;40836;39.770;2.714;2022-11-20T06:03:35;9.32;;;2.20;;
54265;SDS011;40836;39.770;2.714;2022-11-20T06:06:01;4.93;;;2.15;;
54265;SDS011;40836;39.770;2.714;2022-11-20T06:08:28;7.88;;;2.17;;
54265;SDS011;40836;39.770;2.714;2022-11-20T06:10:54;5.13;;;2.30;;
54265;SDS011;40836;39.770;2.714;2022-11-20T06:13:20;8.15;;;2.03;;
54265;SDS011;40836;39.770;2.714;2022-11-20T06:15:49;6.03;;;1.88;;
54265;SDS011;40836;39.770;2.714;2022-11-20T06:18:15;4.05;;;2.25;;
54265;SDS011;40836;39.770;2.714;2022-11-20T06:20:41;7.65;;;2.47;;
54265;SDS011;40836;39.770;2.714;2022-11-20T06:23:06;7.68;;;2.58;;
54265;SDS011;40836;39.770;2.714;2022-11-20T06:25:32;8.48;;;2.50;;
54265;SDS011;40836;39.770;2.714;2022-11-20T06:27:57;5.57;;;2.60;;
54265;SDS011;40836;39.770;2.714;2022-11-20T06:30:22;8.88;;;2.75;;
54265;SDS011;40836;39.770;2.714;2022-11-20T06:32:48;8.82;;;2.70;;
54265;SDS011;40836;39.770;2.714;2022-11-20T06:35:13;8.18;;;2.72;;
54265;SDS011;40836;39.770;2.714;2022-11-20T06:37:39;6.57;;;2.83;;
54265;SDS011;40836;39.770;2.714;2022-11-20T06:40:04;7.22;;;2.55;;
54265;SDS011;40836;39.770;2.714;2022-11-20T06:42:30;6.20;;;2.20;;
54265;SDS011;40836;39.770;2.714;2022-11-20T06:44:57;5.57;;;2.50;;
54265;SDS011;40836;39.770;2.714;2022-11-20T06:47:22;8.15;;;2.40;;
54265;SDS011;40836;39.770;2.714;2022-11-20T06:49:48;8.38;;;2.38;;
54265;SDS011;40836;39.770;2.714;2022-11-20T06:52:13;3.83;;;2.40;;
54265;SDS011;40836;39.770;2.714;2022-11-20T06:54:39;6.03;;;2.53;;
54265;SDS011;40836;39.770;2.714;2022-11-20T06:57:04;8.95;;;2.53;;
54265;SDS011;40836;39.770;2.714;2022-11-20T06:59:29;8.85;;;2.22;;
54265;SDS011;40836;39.770;2.714;2022-11-20T07:01:55;7.60;;;3.60;;
54265;SDS011;40836;39.770;2.714;2022-11-20T07:04:20;8.57;;;3.97;;
54265;SDS011;40836;39.770;2.714;2022-11-20T07:06:46;9.40;;;5.40;;
54265;SDS011;40836;39.770;2.714;2022-11-20T07:09:11;10.00;;;5.18;;
54265;SDS011;40836;39.770;2.714;2022-11-20T07:11:37;9.15;;;5.20;;
54265;SDS011;40836;39.770;2.714;2022-11-20T07:14:02;13.00;;;4.78;;
54265;SDS011;40836;39.770;2.714;2022-11-20T07:16:28;10.20;;;4.45;;
54265;SDS011;40836;39.770;2.714;2022-11-20T07:18:53;13.05;;;6.10;;
54265;SDS011;40836;39.770;2.714;2022-11-20T07:21:18;13.35;;;6.63;;
54265;SDS011;40836;39.770;2.714;2022-11-20T07:23:44;10.23;;;5.50;;
54265;SDS011;40836;39.770;2.714;2022-11-20T07:26:10;12.02;;;5.10;;
54265;SDS011;40836;39.770;2.714;2022-11-20T07:28:36;8.75;;;4.60;;
54265;SDS011;40836;39.770;2.714;2022-11-20T07:31:02;10.50;;;3.70;;
54265;SDS011;40836;39.770;2.714;2022-11-20T07:33:28;8.65;;;3.95;;
54265;SDS011;40836;39.770;2.714;2022-11-20T07:35:54;10.73;;;3.80;;
54265;SDS011;40836;39.770;2.714;2022-11-20T07:38:19;8.25;;;3.47;;
54265;SDS011;40836;39.770;2.714;2022-11-20T07:40:45;10.13;;;4.10;;
54265;SDS011;40836;39.770;2.714;2022-11-20T07:43:10;11.88;;;4.60;;
54265;SDS011;40836;39.770;2.714;2022-11-20T07:45:35;11.23;;;5.35;;
54265;SDS011;40836;39.770;2.714;2022-11-20T07:48:01;13.73;;;7.68;;
54265;SDS011;40836;39.770;2.714;2022-11-20T07:50:27;12.38;;;7.72;;
54265;SDS011;40836;39.770;2.714;2022-11-20T07:52:52;13.77;;;7.78;;
54265;SDS011;40836;39.770;2.714;2022-11-20T07:55:25;16.23;;;7.13;;
54265;SDS011;40836;39.770;2.714;2022-11-20T07:57:54;19.48;;;7.88;;
54265;SDS011;40836;39.770;2.714;2022-11-20T08:00:21;13.30;;;6.28;;
54265;SDS011;40836;39.770;2.714;2022-11-20T08:02:46;18.75;;;8.38;;
54265;SDS011;40836;39.770;2.714;2022-11-20T08:05:12;14.73;;;6.22;;
54265;SDS011;40836;39.770;2.714;2022-11-20T08:07:38;14.25;;;5.32;;
54265;SDS011;40836;39.770;2.714;2022-11-20T08:10:06;9.50;;;5.40;;
54265;SDS011;40836;39.770;2.714;2022-11-20T08:12:32;12.45;;;6.35;;
54265;SDS011;40836;39.770;2.714;2022-11-20T08:15:16;10.88;;;5.40;;
54265;SDS011;40836;39.770;2.714;2022-11-20T08:17:42;14.45;;;9.10;;
54265;SDS011;40836;39.770;2.714;2022-11-20T08:20:08;22.15;;;13.82;;
54265;SDS011;40836;39.770;2.714;2022-11-20T08:22:34;19.15;;;13.23;;
54265;SDS011;40836;39.770;2.714;2022-11-20T08:24:59;15.38;;;8.20;;
54265;SDS011;40836;39.770;2.714;2022-11-20T08:27:25;13.63;;;8.55;;
54265;SDS011;40836;39.770;2.714;2022-11-20T08:29:50;16.15;;;7.75;;
54265;SDS011;40836;39.770;2.714;2022-11-20T08:32:16;16.25;;;9.32;;
54265;SDS011;40836;39.770;2.714;2022-11-20T08:34:41;24.38;;;13.27;;
54265;SDS011;40836;39.770;2.714;2022-11-20T08:37:07;17.65;;;9.38;;
54265;SDS011;40836;39.770;2.714;2022-11-20T08:39:32;24.80;;;14.25;;
54265;SDS011;40836;39.770;2.714;2022-11-20T08:41:57;20.42;;;12.15;;
54265;SDS011;40836;39.770;2.714;2022-11-20T08:44:23;14.68;;;8.73;;
54265;SDS011;40836;39.770;2.714;2022-11-20T08:46:49;14.45;;;7.80;;
54265;SDS011;40836;39.770;2.714;2022-11-20T08:49:14;14.48;;;9.25;;
54265;SDS011;40836;39.770;2.714;2022-11-20T08:51:40;12.77;;;8.10;;
54265;SDS011;40836;39.770;2.714;2022-11-20T08:54:07;21.40;;;16.48;;
54265;SDS011;40836;39.770;2.714;2022-11-20T08:56:33;51.33;;;32.75;;
54265;SDS011;40836;39.770;2.714;2022-11-20T08:58:59;49.67;;;33.20;;
54265;SDS011;40836;39.770;2.714;2022-11-20T09:01:24;50.38;;;35.17;;
54265;SDS011;40836;39.770;2.714;2022-11-20T09:03:51;120.35;;;64.32;;
54265;SDS011;40836;39.770;2.714;2022-11-20T09:06:17;116.50;;;64.43;;
54265;SDS011;40836;39.770;2.714;2022-11-20T09:08:43;105.68;;;57.70;;
54265;SDS011;40836;39.770;2.714;2022-11-20T09:11:09;89.20;;;52.85;;
54265;SDS011;40836;39.770;2.714;2022-11-20T09:13:35;82.72;;;52.58;;
54265;SDS011;40836;39.770;2.714;2022-11-20T09:16:05;68.57;;;44.67;;
54265;SDS011;40836;39.770;2.714;2022-11-20T09:18:32;50.88;;;28.55;;
54265;SDS011;40836;39.770;2.714;2022-11-20T09:21:02;43.33;;;26.05;;
54265;SDS011;40836;39.770;2.714;2022-11-20T09:23:33;22.70;;;12.07;;
54265;SDS011;40836;39.770;2.714;2022-11-20T09:26:10;14.85;;;5.70;;
54265;SDS011;40836;39.770;2.714;2022-11-20T09:28:37;8.68;;;3.03;;
54265;SDS011;40836;39.770;2.714;2022-11-20T09:31:06;8.13;;;2.70;;
54265;SDS011;40836;39.770;2.714;2022-11-20T09:33:43;9.13;;;1.67;;
54265;SDS011;40836;39.770;2.714;2022-11-20T09:36:08;6.50;;;1.42;;
54265;SDS011;40836;39.770;2.714;2022-11-20T09:38:34;7.35;;;1.50;;
54265;SDS011;40836;39.770;2.714;2022-11-20T09:41:02;5.30;;;1.70;;
54265;SDS011;40836;39.770;2.714;2022-11-20T09:52:17;6.18;;;1.55;;
54265;SDS011;40836;39.770;2.714;2022-11-20T09:55:02;10.57;;;1.40;;
54265;SDS011;40836;39.770;2.714;2022-11-20T09:57:33;5.20;;;1.40;;
54265;SDS011;40836;39.770;2.714;2022-11-20T10:00:02;4.22;;;1.20;;
54265;SDS011;40836;39.770;2.714;2022-11-20T10:02:34;4.55;;;1.20;;
54265;SDS011;40836;39.770;2.714;2022-11-20T10:05:12;5.88;;;1.30;;
54265;SDS011;40836;39.770;2.714;2022-11-20T10:07:44;3.88;;;1.20;;
54265;SDS011;40836;39.770;2.714;2022-11-20T10:10:41;4.45;;;1.08;;
54265;SDS011;40836;39.770;2.714;2022-11-20T10:13:22;2.85;;;0.98;;
54265;SDS011;40836;39.770;2.714;2022-11-20T10:22:08;8.52;;;1.10;;
54265;SDS011;40836;39.770;2.714;2022-11-20T10:24:41;4.30;;;1.00;;
54265;SDS011;40836;39.770;2.714;2022-11-20T10:30:11;4.10;;;1.08;;
54265;SDS011;40836;39.770;2.714;2022-11-20T10:32:42;5.55;;;1.27;;
54265;SDS011;40836;39.770;2.714;2022-11-20T10:37:39;4.03;;;1.20;;
54265;SDS011;40836;39.770;2.714;2022-11-20T10:42:49;6.13;;;1.60;;
54265;SDS011;40836;39.770;2.714;2022-11-20T10:47:54;5.25;;;1.00;;
54265;SDS011;40836;39.770;2.714;2022-11-20T10:50:32;2.88;;;0.88;;
54265;SDS011;40836;39.770;2.714;2022-11-20T10:53:05;7.28;;;1.02;;
54265;SDS011;40836;39.770;2.714;2022-11-20T10:55:54;4.70;;;1.17;;
54265;SDS011;40836;39.770;2.714;2022-11-20T10:58:38;5.05;;;1.40;;
54265;SDS011;40836;39.770;2.714;2022-11-20T11:01:15;9.60;;;1.50;;
54265;SDS011;40836;39.770;2.714;2022-11-20T11:03:43;5.28;;;1.50;;
54265;SDS011;40836;39.770;2.714;2022-11-20T11:08:58;4.03;;;1.25;;
54265;SDS011;40836;39.770;2.714;2022-11-20T11:11:27;7.03;;;2.10;;
54265;SDS011;40836;39.770;2.714;2022-11-20T11:14:11;3.65;;;1.40;;
54265;SDS011;40836;39.770;2.714;2022-11-20T11:16:52;4.15;;;1.40;;
54265;SDS011;40836;39.770;2.714;2022-11-20T11:19:22;3.45;;;1.10;;
54265;SDS011;40836;39.770;2.714;2022-11-20T11:21:49;5.32;;;1.17;;
54265;SDS011;40836;39.770;2.714;2022-11-20T11:24:21;6.43;;;1.50;;
54265;SDS011;40836;39.770;2.714;2022-11-20T11:27:00;5.38;;;1.25;;
54265;SDS011;40836;39.770;2.714;2022-11-20T11:29:29;7.15;;;1.05;;
54265;SDS011;40836;39.770;2.714;2022-11-20T11:32:03;6.90;;;1.30;;
54265;SDS011;40836;39.770;2.714;2022-11-20T11:34:32;6.95;;;1.40;;
54265;SDS011;40836;39.770;2.714;2022-11-20T11:36:58;5.10;;;1.20;;
54265;SDS011;40836;39.770;2.714;2022-11-20T11:39:26;5.00;;;1.20;;
54265;SDS011;40836;39.770;2.714;2022-11-20T11:41:53;4.88;;;1.30;;
54265;SDS011;40836;39.770;2.714;2022-11-20T11:50:00;6.15;;;1.50;;
54265;SDS011;40836;39.770;2.714;2022-11-20T11:52:48;6.15;;;1.15;;
54265;SDS011;40836;39.770;2.714;2022-11-20T11:58:40;9.50;;;2.05;;
54265;SDS011;40836;39.770;2.714;2022-11-20T12:06:58;8.50;;;1.58;;
54265;SDS011;40836;39.770;2.714;2022-11-20T12:09:34;8.85;;;1.27;;
54265;SDS011;40836;39.770;2.714;2022-11-20T12:12:18;6.35;;;1.45;;
54265;SDS011;40836;39.770;2.714;2022-11-20T12:14:48;6.43;;;1.35;;
54265;SDS011;40836;39.770;2.714;2022-11-20T12:17:18;9.13;;;1.48;;
54265;SDS011;40836;39.770;2.714;2022-11-20T12:19:43;7.05;;;1.30;;
54265;SDS011;40836;39.770;2.714;2022-11-20T12:25:20;5.97;;;1.55;;
54265;SDS011;40836;39.770;2.714;2022-11-20T12:30:21;5.32;;;1.20;;
54265;SDS011;40836;39.770;2.714;2022-11-20T12:50:30;4.88;;;1.20;;
54265;SDS011;40836;39.770;2.714;2022-11-20T12:53:10;6.28;;;1.52;;
54265;SDS011;40836;39.770;2.714;2022-11-20T13:07:18;4.22;;;1.48;;
54265;SDS011;40836;39.770;2.714;2022-11-20T13:09:49;8.35;;;1.85;;
54265;SDS011;40836;39.770;2.714;2022-11-20T13:20:19;6.90;;;1.60;;
54265;SDS011;40836;39.770;2.714;2022-11-20T13:22:52;8.32;;;1.75;;
54265;SDS011;40836;39.770;2.714;2022-11-20T13:25:29;9.02;;;1.88;;
54265;SDS011;40836;39.770;2.714;2022-11-20T13:28:00;6.30;;;1.60;;
54265;SDS011;40836;39.770;2.714;2022-11-20T13:30:48;6.75;;;2.00;;
54265;SDS011;40836;39.770;2.714;2022-11-20T13:36:02;5.70;;;1.50;;
54265;SDS011;40836;39.770;2.714;2022-11-20T13:38:28;5.05;;;1.50;;
54265;SDS011;40836;39.770;2.714;2022-11-20T13:41:11;3.72;;;1.13;;
54265;SDS011;40836;39.770;2.714;2022-11-20T13:46:50;5.47;;;1.73;;
54265;SDS011;40836;39.770;2.714;2022-11-20T13:58:19;3.42;;;1.00;;
54265;SDS011;40836;39.770;2.714;2022-11-20T14:00:57;2.33;;;0.80;;
54265;SDS011;40836;39.770;2.714;2022-11-20T14:03:25;3.92;;;1.05;;
54265;SDS011;40836;39.770;2.714;2022-11-20T14:06:02;2.63;;;1.02;;
54265;SDS011;40836;39.770;2.714;2022-11-20T14:08:37;2.22;;;1.00;;
54265;SDS011;40836;39.770;2.714;2022-11-20T14:14:02;1.27;;;0.80;;
54265;SDS011;40836;39.770;2.714;2022-11-20T14:16:40;3.05;;;1.10;;
54265;SDS011;40836;39.770;2.714;2022-11-20T14:24:12;4.57;;;1.33;;
54265;SDS011;40836;39.770;2.714;2022-11-20T14:26:44;6.18;;;1.30;;
54265;SDS011;40836;39.770;2.714;2022-11-20T14:29:14;3.72;;;1.40;;
54265;SDS011;40836;39.770;2.714;2022-11-20T14:31:45;2.75;;;0.90;;
54265;SDS011;40836;39.770;2.714;2022-11-20T14:34:15;4.72;;;1.15;;
54265;SDS011;40836;39.770;2.714;2022-11-20T14:37:03;2.10;;;1.05;;
54265;SDS011;40836;39.770;2.714;2022-11-20T14:39:31;4.60;;;1.20;;
54265;SDS011;40836;39.770;2.714;2022-11-20T14:41:59;4.70;;;0.80;;
54265;SDS011;40836;39.770;2.714;2022-11-20T14:44:32;3.30;;;0.90;;
54265;SDS011;40836;39.770;2.714;2022-11-20T14:47:02;1.95;;;1.00;;
54265;SDS011;40836;39.770;2.714;2022-11-20T14:49:29;6.20;;;1.40;;
54265;SDS011;40836;39.770;2.714;2022-11-20T14:52:09;5.25;;;1.50;;
54265;SDS011;40836;39.770;2.714;2022-11-20T14:54:44;4.45;;;1.30;;
54265;SDS011;40836;39.770;2.714;2022-11-20T14:57:30;2.65;;;1.10;;
54265;SDS011;40836;39.770;2.714;2022-11-20T15:00:19;4.38;;;1.35;;
54265;SDS011;40836;39.770;2.714;2022-11-20T15:02:47;6.15;;;1.67;;
54265;SDS011;40836;39.770;2.714;2022-11-20T15:05:14;3.95;;;1.15;;
54265;SDS011;40836;39.770;2.714;2022-11-20T15:07:42;5.88;;;1.63;;
54265;SDS011;40836;39.770;2.714;2022-11-20T15:12:47;4.88;;;1.35;;
54265;SDS011;40836;39.770;2.714;2022-11-20T15:15:20;2.50;;;1.10;;
54265;SDS011;40836;39.770;2.714;2022-11-20T15:17:53;2.63;;;1.10;;
54265;SDS011;40836;39.770;2.714;2022-11-20T15:20:18;4.72;;;1.17;;
54265;SDS011;40836;39.770;2.714;2022-11-20T15:22:46;6.47;;;1.42;;
54265;SDS011;40836;39.770;2.714;2022-11-20T15:25:12;4.63;;;1.20;;
54265;SDS011;40836;39.770;2.714;2022-11-20T15:27:38;4.97;;;1.40;;
54265;SDS011;40836;39.770;2.714;2022-11-20T15:30:11;5.97;;;1.40;;
54265;SDS011;40836;39.770;2.714;2022-11-20T15:32:42;7.47;;;1.40;;
54265;SDS011;40836;39.770;2.714;2022-11-20T15:35:07;5.78;;;1.20;;
54265;SDS011;40836;39.770;2.714;2022-11-20T15:37:33;3.92;;;1.30;;
54265;SDS011;40836;39.770;2.714;2022-11-20T15:39:59;3.03;;;1.33;;
54265;SDS011;40836;39.770;2.714;2022-11-20T15:42:24;3.65;;;1.30;;
54265;SDS011;40836;39.770;2.714;2022-11-20T15:44:50;4.50;;;1.30;;
54265;SDS011;40836;39.770;2.714;2022-11-20T15:47:15;2.97;;;1.20;;
54265;SDS011;40836;39.770;2.714;2022-11-20T15:49:42;5.85;;;1.02;;
54265;SDS011;40836;39.770;2.714;2022-11-20T15:52:09;2.75;;;0.90;;
54265;SDS011;40836;39.770;2.714;2022-11-20T15:54:35;3.30;;;1.10;;
54265;SDS011;40836;39.770;2.714;2022-11-20T15:57:00;4.32;;;1.40;;
54265;SDS011;40836;39.770;2.714;2022-11-20T15:59:27;3.15;;;1.08;;
54265;SDS011;40836;39.770;2.714;2022-11-20T16:01:53;4.18;;;0.85;;
54265;SDS011;40836;39.770;2.714;2022-11-20T16:04:18;4.32;;;1.10;;
54265;SDS011;40836;39.770;2.714;2022-11-20T16:06:44;3.47;;;1.20;;
54265;SDS011;40836;39.770;2.714;2022-11-20T16:09:09;2.67;;;0.85;;
54265;SDS011;40836;39.770;2.714;2022-11-20T16:11:35;1.95;;;0.82;;
54265;SDS011;40836;39.770;2.714;2022-11-20T16:14:04;3.20;;;1.15;;
54265;SDS011;40836;39.770;2.714;2022-11-20T16:16:48;4.37;;;1.20;;
54265;SDS011;40836;39.770;2.714;2022-11-20T16:19:14;3.53;;;1.17;;
54265;SDS011;40836;39.770;2.714;2022-11-20T16:21:40;2.50;;;1.10;;
54265;SDS011;40836;39.770;2.714;2022-11-20T16:24:07;3.10;;;1.10;;
54265;SDS011;40836;39.770;2.714;2022-11-20T16:26:35;2.40;;;1.05;;
54265;SDS011;40836;39.770;2.714;2022-11-20T16:29:02;3.53;;;1.67;;
54265;SDS011;40836;39.770;2.714;2022-11-20T16:31:30;5.45;;;1.60;;
54265;SDS011;40836;39.770;2.714;2022-11-20T16:33:56;3.50;;;1.70;;
54265;SDS011;40836;39.770;2.714;2022-11-20T16:36:24;3.00;;;1.60;;
54265;SDS011;40836;39.770;2.714;2022-11-20T16:38:57;5.45;;;1.83;;
54265;SDS011;40836;39.770;2.714;2022-11-20T16:41:25;3.53;;;2.00;;
54265;SDS011;40836;39.770;2.714;2022-11-20T16:43:52;5.97;;;2.28;;
54265;SDS011;40836;39.770;2.714;2022-11-20T16:46:23;3.22;;;1.88;;
54265;SDS011;40836;39.770;2.714;2022-11-20T16:48:53;3.33;;;1.90;;
54265;SDS011;40836;39.770;2.714;2022-11-20T16:51:24;4.23;;;2.03;;
54265;SDS011;40836;39.770;2.714;2022-11-20T16:53:51;5.25;;;2.15;;